Terminal Aerodrome Forecast
Issued by NWS Cleveland, OH

Home | Current Version | Previous Version | Graphics & Text | Print | Product List | Glossary Off
Versions: 1 2 3 4 5 6 7 8 9 10 11 12 13 14 15 16 17 18 19 20 21 22

765
FTUS41 KCLE 241124
TAFYNG
TAF
KYNG 241124Z 2412/2512 18009KT P6SM SCT045 BKN090
     FM241600 19014G20KT P6SM SCT045 BKN200
     FM250000 19012KT P6SM SCT045 BKN200
     FM250500 20012KT P6SM VCTS SCT045CB BKN150
     FM251100 23012KT 6SM BR BKN025=

USA.gov is the U.S. government's official web portal to all federal, state and local government web resources and services.